createdAt,value
2023-05-24T00:00:44.995Z,100.00
2023-05-24T00:03:15.455Z,100.00
2023-05-24T00:05:43.478Z,100.00
2023-05-24T00:08:11.476Z,100.00
2023-05-24T00:10:39.261Z,100.00
2023-05-24T00:13:06.996Z,100.00
2023-05-24T00:15:35.037Z,100.00
2023-05-24T00:18:02.747Z,100.00
2023-05-24T00:20:31.768Z,100.00
2023-05-24T00:22:59.401Z,100.00
2023-05-24T00:25:27.025Z,100.00
2023-05-24T00:27:54.658Z,100.00
2023-05-24T00:30:22.332Z,100.00
2023-05-24T00:32:50.117Z,100.00
2023-05-24T00:35:17.972Z,100.00
2023-05-24T00:37:48.075Z,100.00
2023-05-24T00:40:15.761Z,100.00
2023-05-24T00:42:43.390Z,100.00
2023-05-24T00:45:11.779Z,100.00
2023-05-24T00:47:39.497Z,100.00
2023-05-24T00:50:09.337Z,100.00
2023-05-24T00:52:37.744Z,100.00
2023-05-24T00:55:08.871Z,100.00
2023-05-24T00:57:37.772Z,100.00
2023-05-24T01:00:07.828Z,100.00
2023-05-24T01:02:35.698Z,100.00
2023-05-24T01:05:04.369Z,100.00
2023-05-24T01:07:40.611Z,100.00
2023-05-24T01:10:18.167Z,100.00
2023-05-24T01:12:57.497Z,100.00
2023-05-24T01:15:29.571Z,100.00
2023-05-24T01:18:05.254Z,100.00
2023-05-24T01:20:38.153Z,100.00
2023-05-24T01:23:19.820Z,100.00
2023-05-24T01:26:04.434Z,100.00
2023-05-24T01:28:35.389Z,100.00
2023-05-24T01:31:03.676Z,100.00
2023-05-24T01:33:31.468Z,100.00
2023-05-24T01:35:59.115Z,100.00
2023-05-24T01:38:26.813Z,100.00
2023-05-24T01:41:02.160Z,100.00
2023-05-24T01:43:38.917Z,100.00
2023-05-24T01:46:13.283Z,100.00
2023-05-24T01:48:55.574Z,100.00
2023-05-24T01:51:26.045Z,100.00
2023-05-24T01:53:54.277Z,100.00
2023-05-24T01:56:22.810Z,100.00
2023-05-24T01:58:53.850Z,100.00
2023-05-24T02:01:21.904Z,100.00
2023-05-24T02:03:50.911Z,100.00
2023-05-24T02:06:19.114Z,100.00
2023-05-24T02:08:47.496Z,100.00
2023-05-24T02:11:15.242Z,100.00
2023-05-24T02:13:42.863Z,100.00
2023-05-24T02:16:11.908Z,100.00
2023-05-24T02:18:40.238Z,100.00
2023-05-24T02:21:08.008Z,100.00
2023-05-24T02:23:36.264Z,100.00
2023-05-24T02:26:03.901Z,100.00
2023-05-24T02:28:32.320Z,100.00
2023-05-24T02:31:00.221Z,100.00
2023-05-24T02:33:30.244Z,100.00
2023-05-24T02:35:58.080Z,100.00
2023-05-24T02:38:26.440Z,100.00
2023-05-24T02:40:54.283Z,100.00
2023-05-24T02:43:21.940Z,100.00
2023-05-24T02:45:49.747Z,100.00
2023-05-24T02:48:17.869Z,100.00
2023-05-24T02:50:46.822Z,100.00
2023-05-24T02:53:14.546Z,100.00
2023-05-24T02:55:44.075Z,100.00
2023-05-24T02:58:12.102Z,100.00
2023-05-24T03:00:39.858Z,100.00
2023-05-24T03:03:07.760Z,100.00
2023-05-24T03:05:35.507Z,100.00
2023-05-24T03:08:04.854Z,100.00
2023-05-24T03:10:32.504Z,100.00
2023-05-24T03:13:00.496Z,100.00
2023-05-24T03:15:28.130Z,100.00
2023-05-24T03:17:57.013Z,100.00
2023-05-24T03:20:24.736Z,100.00
2023-05-24T03:22:52.504Z,100.00
2023-05-24T03:25:22.010Z,100.00
2023-05-24T03:27:49.611Z,100.00
2023-05-24T03:30:17.326Z,100.00
2023-05-24T03:32:44.945Z,100.00
2023-05-24T03:35:12.973Z,100.00
2023-05-24T03:37:40.681Z,100.00
2023-05-24T03:40:09.502Z,100.00
2023-05-24T03:42:39.101Z,100.00
2023-05-24T03:45:07.738Z,100.00
2023-05-24T03:47:35.454Z,100.00
2023-05-24T03:50:03.151Z,100.00
2023-05-24T03:52:30.801Z,100.00
2023-05-24T03:54:58.750Z,100.00
2023-05-24T03:57:26.523Z,100.00
2023-05-24T03:59:55.820Z,100.00
2023-05-24T04:02:23.522Z,100.00
2023-05-24T04:04:51.554Z,100.00
2023-05-24T04:07:19.508Z,100.00
2023-05-24T04:09:47.473Z,100.00
2023-05-24T04:12:15.158Z,100.00
2023-05-24T04:14:42.810Z,100.00
2023-05-24T04:17:12.324Z,100.00
2023-05-24T04:19:39.976Z,100.00
2023-05-24T04:22:07.564Z,100.00
2023-05-24T04:24:35.219Z,100.00
2023-05-24T04:27:03.408Z,100.00
2023-05-24T04:29:33.291Z,100.00
2023-05-24T04:32:01.589Z,100.00
2023-05-24T04:34:33.844Z,100.00
2023-05-24T04:37:02.138Z,100.00
2023-05-24T04:39:31.358Z,100.00
2023-05-24T04:42:00.635Z,100.00
2023-05-24T04:44:28.315Z,100.00
2023-05-24T04:46:56.298Z,100.00
2023-05-24T04:49:24.086Z,100.00
2023-05-24T04:51:55.133Z,100.00
2023-05-24T04:54:22.984Z,100.00
2023-05-24T04:56:50.718Z,100.00
2023-05-24T04:59:18.429Z,100.00
2023-05-24T05:01:46.245Z,100.00
2023-05-24T05:04:13.939Z,100.00
2023-05-24T05:06:43.359Z,100.00
2023-05-24T05:09:13.864Z,100.00
2023-05-24T05:11:41.757Z,100.00
2023-05-24T05:14:10.019Z,100.00
2023-05-24T05:16:37.915Z,100.00
2023-05-24T05:19:07.214Z,100.00
2023-05-24T05:21:36.380Z,100.00
2023-05-24T05:24:04.618Z,100.00
2023-05-24T05:26:34.489Z,100.00
2023-05-24T05:29:02.205Z,100.00
2023-05-24T05:31:31.064Z,100.00
2023-05-24T05:33:58.720Z,100.00
2023-05-24T05:36:26.378Z,100.00
2023-05-24T05:38:54.604Z,100.00
2023-05-24T05:41:22.268Z,100.00
2023-05-24T05:43:51.303Z,100.00
2023-05-24T05:46:20.794Z,100.00
2023-05-24T05:48:49.476Z,100.00
2023-05-24T05:51:17.188Z,100.00
2023-05-24T05:53:44.809Z,100.00
2023-05-24T05:56:12.591Z,100.00
2023-05-24T05:58:41.161Z,100.00
2023-05-24T06:01:10.135Z,100.00
2023-05-24T06:03:37.892Z,100.00
2023-05-24T06:06:06.036Z,100.00
2023-05-24T06:08:35.301Z,100.00
2023-05-24T06:11:03.222Z,100.00
2023-05-24T06:13:31.289Z,100.00
2023-05-24T06:16:00.842Z,100.00
2023-05-24T06:18:32.669Z,100.00
2023-05-24T06:21:00.317Z,100.00
2023-05-24T06:23:27.935Z,100.00
2023-05-24T06:25:56.067Z,100.00
2023-05-24T06:28:23.799Z,100.00
2023-05-24T06:30:52.045Z,100.00
2023-05-24T06:33:19.782Z,100.00
2023-05-24T06:35:48.968Z,100.00
2023-05-24T06:38:17.889Z,100.00
2023-05-24T06:40:45.796Z,100.00
2023-05-24T06:43:13.422Z,100.00
2023-05-24T06:45:41.519Z,100.00
2023-05-24T06:48:09.228Z,100.00
2023-05-24T06:50:41.608Z,100.00
2023-05-24T06:53:11.676Z,100.00
2023-05-24T06:55:39.290Z,100.00
2023-05-24T06:58:07.792Z,100.00
2023-05-24T07:00:35.395Z,100.00
2023-05-24T07:03:03.225Z,100.00
2023-05-24T07:05:31.409Z,100.00
2023-05-24T07:07:59.113Z,100.00
2023-05-24T07:10:28.302Z,100.00
2023-05-24T07:12:56.053Z,100.00
2023-05-24T07:15:23.705Z,100.00
2023-05-24T07:17:51.734Z,100.00
2023-05-24T07:20:19.511Z,100.00
2023-05-24T07:22:47.320Z,100.00
2023-05-24T07:25:15.027Z,100.00
2023-05-24T07:27:44.297Z,100.00
2023-05-24T07:30:23.429Z,100.00
2023-05-24T07:32:59.504Z,100.00
2023-05-24T07:35:28.651Z,100.00
2023-05-24T07:37:56.520Z,100.00
2023-05-24T07:40:24.586Z,100.00
2023-05-24T07:42:53.587Z,100.00
2023-05-24T07:45:21.388Z,100.00
2023-05-24T07:47:49.037Z,100.00
2023-05-24T07:50:17.013Z,100.00
2023-05-24T07:52:45.502Z,100.00
2023-05-24T07:55:13.165Z,100.00
2023-05-24T07:57:41.085Z,100.00
2023-05-24T08:00:14.557Z,100.00
2023-05-24T08:02:43.107Z,100.00
2023-05-24T08:05:13.071Z,100.00
2023-05-24T08:07:41.680Z,100.00
2023-05-24T08:10:12.561Z,100.00
2023-05-24T08:12:40.431Z,100.00
2023-05-24T08:15:10.764Z,100.00
2023-05-24T08:17:39.175Z,100.00
2023-05-24T08:20:09.065Z,100.00
2023-05-24T08:22:37.315Z,100.00
2023-05-24T08:25:06.196Z,100.00
2023-05-24T08:27:33.921Z,100.00
2023-05-24T08:30:03.986Z,100.00
2023-05-24T08:32:33.370Z,100.00
2023-05-24T08:35:17.477Z,100.00
2023-05-24T08:37:47.300Z,100.00
2023-05-24T08:40:14.970Z,100.00
2023-05-24T08:42:43.353Z,100.00
2023-05-24T08:45:13.499Z,100.00
2023-05-24T08:47:43.488Z,100.00
2023-05-24T08:50:12.607Z,100.00
2023-05-24T08:52:41.405Z,100.00
2023-05-24T08:55:10.540Z,100.00
2023-05-24T08:57:40.035Z,100.00
2023-05-24T09:00:10.185Z,100.00
2023-05-24T09:02:39.536Z,100.00
2023-05-24T09:05:11.313Z,100.00
2023-05-24T09:07:39.519Z,100.00
2023-05-24T09:10:09.775Z,100.00
2023-05-24T09:12:39.587Z,100.00
2023-05-24T09:15:09.543Z,100.00
2023-05-24T09:17:38.300Z,100.00
2023-05-24T09:20:10.711Z,100.00
2023-05-24T09:22:41.192Z,100.00
2023-05-24T09:25:10.863Z,100.00
2023-05-24T09:27:38.878Z,100.00
2023-05-24T09:30:10.763Z,100.00
2023-05-24T09:32:38.872Z,100.00
2023-05-24T09:35:11.073Z,100.00
2023-05-24T09:37:40.376Z,100.00
2023-05-24T09:40:18.350Z,100.00
2023-05-24T09:42:46.540Z,100.00
2023-05-24T09:45:14.442Z,100.00
2023-05-24T09:47:43.591Z,100.00
2023-05-24T09:50:17.451Z,100.00
2023-05-24T09:52:46.182Z,100.00
2023-05-24T09:55:15.267Z,100.00
2023-05-24T09:57:44.660Z,100.00
2023-05-24T10:00:17.416Z,100.00
2023-05-24T10:02:53.373Z,100.00
2023-05-24T10:05:23.310Z,100.00
2023-05-24T10:07:51.926Z,100.00
2023-05-24T10:10:19.879Z,100.00
2023-05-24T10:12:48.053Z,100.00
2023-05-24T10:15:16.380Z,100.00
2023-05-24T10:17:44.384Z,100.00
2023-05-24T10:20:13.239Z,100.00
2023-05-24T10:22:45.678Z,100.00
2023-05-24T10:25:18.782Z,95.29
2023-05-24T10:27:48.900Z,98.44
2023-05-24T10:30:25.931Z,100.00
2023-05-24T10:32:56.939Z,89.55
2023-05-24T10:35:27.421Z,93.10
2023-05-24T10:37:57.328Z,99.44
2023-05-24T10:40:26.274Z,100.00
2023-05-24T10:42:55.053Z,91.16
2023-05-24T10:45:35.791Z,97.38
2023-05-24T10:48:11.297Z,95.37
2023-05-24T10:50:39.188Z,100.00
2023-05-24T10:53:15.618Z,88.05
2023-05-24T10:55:54.187Z,87.89
2023-05-24T10:58:24.429Z,78.98
2023-05-24T11:00:53.383Z,83.29
2023-05-24T11:03:25.389Z,88.99
2023-05-24T11:05:55.328Z,88.19
2023-05-24T11:08:26.611Z,88.75
2023-05-24T11:11:19.111Z,88.21
2023-05-24T11:13:50.615Z,91.85
2023-05-24T11:16:38.761Z,88.10
2023-05-24T11:19:14.090Z,85.95
2023-05-24T11:21:42.164Z,92.27
2023-05-24T11:24:11.505Z,97.45
2023-05-24T11:26:39.231Z,100.00
2023-05-24T11:29:08.267Z,100.00
2023-05-24T11:31:42.392Z,100.00
2023-05-24T11:34:11.840Z,100.00
2023-05-24T11:36:39.609Z,100.00
2023-05-24T11:39:09.480Z,100.00
2023-05-24T11:41:39.945Z,100.00
2023-05-24T11:44:09.125Z,98.02
2023-05-24T11:46:36.883Z,98.95
2023-05-24T11:49:04.522Z,93.21
2023-05-24T11:51:33.430Z,94.74
2023-05-24T11:54:01.629Z,90.78
2023-05-24T11:56:33.956Z,89.28
2023-05-24T11:59:10.974Z,92.42
2023-05-24T12:01:39.176Z,89.83
2023-05-24T12:04:08.916Z,84.07
2023-05-24T12:06:38.630Z,83.50
2023-05-24T12:09:09.294Z,83.43
2023-05-24T12:11:41.642Z,84.86
2023-05-24T12:14:13.752Z,79.05
2023-05-24T12:16:43.415Z,81.15
2023-05-24T12:19:30.844Z,86.91
2023-05-24T12:22:01.559Z,76.08
2023-05-24T12:24:29.579Z,80.25
2023-05-24T12:27:02.003Z,80.91
2023-05-24T12:29:36.726Z,78.24
2023-05-24T12:32:05.179Z,72.17
2023-05-24T12:34:33.607Z,69.22
2023-05-24T12:37:01.759Z,71.36
2023-05-24T12:39:34.185Z,70.07
2023-05-24T12:42:02.874Z,67.03
2023-05-24T12:44:32.924Z,66.02
2023-05-24T12:47:03.456Z,67.62
2023-05-24T12:49:32.412Z,60.76
2023-05-24T12:52:01.955Z,62.66
2023-05-24T12:54:30.323Z,67.43
2023-05-24T12:57:00.188Z,64.50
2023-05-24T12:59:29.428Z,69.12
2023-05-24T13:01:57.172Z,64.53
2023-05-24T13:04:27.429Z,64.47
2023-05-24T13:06:55.664Z,60.60
2023-05-24T13:09:24.102Z,63.68
2023-05-24T13:11:52.173Z,62.17
2023-05-24T13:14:20.292Z,64.56
2023-05-24T13:16:48.242Z,65.09
2023-05-24T13:19:16.480Z,59.42
2023-05-24T13:21:45.707Z,63.23
2023-05-24T13:24:14.676Z,61.01
2023-05-24T13:26:42.393Z,59.63
2023-05-24T13:31:41.778Z,60.31
2023-05-24T13:34:10.968Z,56.12
2023-05-24T13:36:39.390Z,57.67
2023-05-24T13:41:41.296Z,55.92
2023-05-24T13:44:10.126Z,58.18
2023-05-24T13:46:38.281Z,57.46
2023-05-24T13:49:06.231Z,57.67
2023-05-24T13:51:34.261Z,53.33
2023-05-24T13:54:02.915Z,55.14
2023-05-24T13:56:33.272Z,55.46
2023-05-24T13:59:02.643Z,57.96
2023-05-24T14:01:31.035Z,58.52
2023-05-24T14:03:58.875Z,58.01
2023-05-24T14:06:26.529Z,59.26
2023-05-24T14:08:54.441Z,58.37
2023-05-24T14:11:22.454Z,58.48
2023-05-24T14:16:22.354Z,60.24
2023-05-24T14:18:51.765Z,59.98
2023-05-24T14:21:21.587Z,57.13
2023-05-24T14:23:49.255Z,55.58
2023-05-24T14:26:18.136Z,58.52
2023-05-24T14:28:46.111Z,61.76
2023-05-24T14:31:15.155Z,63.75
2023-05-24T14:33:42.775Z,67.45
2023-05-24T14:36:10.359Z,70.32
2023-05-24T14:38:38.004Z,74.09
2023-05-24T14:41:06.343Z,74.90
2023-05-24T14:43:33.980Z,74.29
2023-05-24T14:46:01.696Z,72.49
2023-05-24T14:48:30.816Z,74.06
2023-05-24T14:50:58.386Z,74.16
2023-05-24T14:53:26.104Z,74.14
2023-05-24T14:55:54.366Z,75.13
2023-05-24T14:58:22.105Z,78.71
2023-05-24T15:00:50.048Z,77.45
2023-05-24T15:03:18.490Z,79.46
2023-05-24T15:05:47.558Z,82.10
2023-05-24T15:08:15.154Z,79.67
2023-05-24T15:10:44.464Z,80.85
2023-05-24T15:13:12.670Z,78.92
2023-05-24T15:15:40.331Z,77.07
2023-05-24T15:18:08.036Z,78.43
2023-05-24T15:20:36.514Z,83.92
2023-05-24T15:23:06.340Z,88.89
2023-05-24T15:25:33.983Z,82.30
2023-05-24T15:28:01.637Z,77.86
2023-05-24T15:30:29.254Z,80.77
2023-05-24T15:32:57.188Z,83.09
2023-05-24T15:35:24.905Z,75.90
2023-05-24T15:37:52.571Z,78.61
2023-05-24T15:40:24.250Z,82.48
2023-05-24T15:42:52.705Z,86.14
2023-05-24T15:45:20.839Z,88.21
2023-05-24T15:47:48.563Z,92.74
2023-05-24T15:50:16.430Z,93.81
2023-05-24T15:52:44.022Z,95.82
2023-05-24T15:55:11.937Z,95.26
2023-05-24T15:57:41.272Z,95.41
2023-05-24T16:00:10.438Z,96.04
2023-05-24T16:02:38.190Z,95.70
2023-05-24T16:05:06.539Z,92.98
2023-05-24T16:07:34.293Z,90.32
2023-05-24T16:10:01.896Z,92.64
2023-05-24T16:12:30.213Z,91.39
2023-05-24T16:15:01.549Z,91.37
2023-05-24T16:17:29.168Z,92.30
2023-05-24T16:19:56.863Z,96.82
2023-05-24T16:22:24.976Z,98.71
2023-05-24T16:24:53.384Z,97.67
2023-05-24T16:27:21.254Z,97.47
2023-05-24T16:29:49.306Z,100.00
2023-05-24T16:32:18.309Z,100.00
2023-05-24T16:37:19.904Z,100.00
2023-05-24T16:39:48.694Z,100.00
2023-05-24T16:42:16.408Z,100.00
2023-05-24T16:44:44.029Z,100.00
2023-05-24T16:47:11.733Z,100.00
2023-05-24T16:49:40.760Z,99.84
2023-05-24T16:52:08.451Z,100.00
2023-05-24T16:54:36.149Z,100.00
2023-05-24T16:57:03.800Z,100.00
2023-05-24T16:59:31.526Z,99.41
2023-05-24T17:01:59.237Z,98.95
2023-05-24T17:04:26.951Z,99.45
2023-05-24T17:06:55.902Z,100.00
2023-05-24T17:09:23.522Z,100.00
2023-05-24T17:11:51.239Z,100.00
2023-05-24T17:14:18.888Z,100.00
2023-05-24T17:16:46.603Z,100.00
2023-05-24T17:19:14.275Z,100.00
2023-05-24T17:21:41.975Z,100.00
2023-05-24T17:24:11.073Z,100.00
2023-05-24T17:26:39.788Z,100.00
2023-05-24T17:29:07.448Z,100.00
2023-05-24T17:31:36.139Z,100.00
2023-05-24T17:34:05.144Z,100.00
2023-05-24T17:36:36.401Z,100.00
2023-05-24T17:39:04.698Z,100.00
2023-05-24T17:41:33.679Z,100.00
2023-05-24T17:44:01.469Z,100.00
2023-05-24T17:46:29.227Z,100.00
2023-05-24T17:48:56.889Z,100.00
2023-05-24T17:51:25.184Z,100.00
2023-05-24T17:53:52.856Z,100.00
2023-05-24T17:56:22.257Z,100.00
2023-05-24T17:58:51.275Z,100.00
2023-05-24T18:01:18.987Z,100.00
2023-05-24T18:03:46.906Z,100.00
2023-05-24T18:06:14.548Z,100.00
2023-05-24T18:08:43.806Z,100.00
2023-05-24T18:11:13.695Z,100.00
2023-05-24T18:13:43.098Z,100.00
2023-05-24T18:16:12.906Z,100.00
2023-05-24T18:18:40.916Z,100.00
2023-05-24T18:21:10.560Z,100.00
2023-05-24T18:23:38.518Z,100.00
2023-05-24T18:26:08.193Z,100.00
2023-05-24T18:28:37.417Z,100.00
2023-05-24T18:31:08.201Z,100.00
2023-05-24T18:33:37.835Z,100.00
2023-05-24T18:36:06.345Z,100.00
2023-05-24T18:38:34.956Z,100.00
2023-05-24T18:41:05.737Z,100.00
2023-05-24T18:43:34.030Z,100.00
2023-05-24T18:46:01.872Z,100.00
2023-05-24T18:48:29.591Z,100.00
2023-05-24T18:50:58.951Z,100.00
2023-05-24T18:53:26.744Z,100.00
2023-05-24T18:55:54.351Z,100.00
2023-05-24T18:58:22.001Z,100.00
2023-05-24T19:00:50.519Z,100.00
2023-05-24T19:03:18.341Z,100.00
2023-05-24T19:05:46.382Z,100.00
2023-05-24T19:08:15.993Z,100.00
2023-05-24T19:10:43.824Z,100.00
2023-05-24T19:13:11.471Z,100.00
2023-05-24T19:15:39.072Z,100.00
2023-05-24T19:18:07.323Z,100.00
2023-05-24T19:20:35.085Z,100.00
2023-05-24T19:23:02.983Z,100.00
2023-05-24T19:25:32.159Z,100.00
2023-05-24T19:28:00.930Z,100.00
2023-05-24T19:30:28.842Z,100.00
2023-05-24T19:32:56.611Z,100.00
2023-05-24T19:35:24.488Z,100.00
2023-05-24T19:37:52.501Z,100.00
2023-05-24T19:40:20.341Z,100.00
2023-05-24T19:42:49.314Z,100.00
2023-05-24T19:45:17.286Z,100.00
2023-05-24T19:47:46.406Z,100.00
2023-05-24T19:50:14.152Z,100.00
2023-05-24T19:52:41.759Z,100.00
2023-05-24T19:55:10.492Z,100.00
2023-05-24T19:57:38.124Z,100.00
2023-05-24T20:00:08.733Z,100.00
2023-05-24T20:02:36.805Z,100.00
2023-05-24T20:05:05.023Z,100.00
2023-05-24T20:07:32.724Z,100.00
2023-05-24T20:10:00.828Z,100.00
2023-05-24T20:12:30.714Z,100.00
2023-05-24T20:14:58.350Z,100.00
2023-05-24T20:17:27.369Z,100.00
2023-05-24T20:19:54.984Z,100.00
2023-05-24T20:22:22.839Z,100.00
2023-05-24T20:24:50.847Z,100.00
2023-05-24T20:27:18.646Z,100.00
2023-05-24T20:29:46.656Z,100.00
2023-05-24T20:32:14.265Z,100.00
2023-05-24T20:34:43.232Z,100.00
2023-05-24T20:37:10.808Z,100.00
2023-05-24T20:39:38.442Z,100.00
2023-05-24T20:42:08.091Z,100.00
2023-05-24T20:44:35.858Z,100.00
2023-05-24T20:47:03.749Z,100.00
2023-05-24T20:49:31.471Z,100.00
2023-05-24T20:52:00.601Z,100.00
2023-05-24T20:54:28.366Z,100.00
2023-05-24T20:56:55.986Z,100.00
2023-05-24T20:59:23.608Z,100.00
2023-05-24T21:01:51.624Z,100.00
2023-05-24T21:04:19.740Z,100.00
2023-05-24T21:06:47.438Z,100.00
2023-05-24T21:09:16.469Z,100.00
2023-05-24T21:11:44.440Z,100.00
2023-05-24T21:14:12.066Z,100.00
2023-05-24T21:16:39.723Z,100.00
2023-05-24T21:19:07.741Z,100.00
2023-05-24T21:21:36.004Z,100.00
2023-05-24T21:24:03.643Z,100.00
2023-05-24T21:26:32.666Z,100.00
2023-05-24T21:29:00.331Z,100.00
2023-05-24T21:31:29.890Z,100.00
2023-05-24T21:33:58.488Z,100.00
2023-05-24T21:36:26.635Z,100.00
2023-05-24T21:38:54.401Z,100.00
2023-05-24T21:41:22.275Z,100.00
2023-05-24T21:43:51.333Z,100.00
2023-05-24T21:46:19.093Z,100.00
2023-05-24T21:48:46.770Z,100.00
2023-05-24T21:51:15.534Z,100.00
2023-05-24T21:53:43.174Z,100.00
2023-05-24T21:56:10.821Z,100.00
2023-05-24T21:58:38.912Z,100.00
2023-05-24T22:01:08.610Z,100.00
2023-05-24T22:03:36.403Z,100.00
2023-05-24T22:06:04.220Z,100.00
2023-05-24T22:08:31.851Z,100.00
2023-05-24T22:10:59.648Z,100.00
2023-05-24T22:13:27.279Z,100.00
2023-05-24T22:15:54.938Z,100.00
2023-05-24T22:18:27.521Z,100.00
2023-05-24T22:20:58.174Z,100.00
2023-05-24T22:23:26.367Z,100.00
2023-05-24T22:25:54.033Z,100.00
2023-05-24T22:28:21.697Z,100.00
2023-05-24T22:30:49.779Z,100.00
2023-05-24T22:33:17.438Z,100.00
2023-05-24T22:35:46.468Z,100.00
2023-05-24T22:38:14.395Z,100.00
2023-05-24T22:40:42.336Z,100.00
2023-05-24T22:43:10.156Z,100.00
2023-05-24T22:45:37.747Z,100.00
2023-05-24T22:48:05.553Z,100.00
2023-05-24T22:50:33.260Z,100.00
2023-05-24T22:53:02.522Z,100.00
2023-05-24T22:55:30.282Z,100.00
2023-05-24T22:57:58.141Z,100.00
2023-05-24T23:00:26.519Z,100.00
2023-05-24T23:02:54.158Z,100.00
2023-05-24T23:05:24.023Z,100.00
2023-05-24T23:07:52.437Z,100.00
2023-05-24T23:10:21.732Z,100.00
2023-05-24T23:12:50.413Z,100.00
2023-05-24T23:15:18.145Z,100.00
2023-05-24T23:17:46.371Z,100.00
2023-05-24T23:20:15.007Z,100.00
2023-05-24T23:22:42.658Z,100.00
2023-05-24T23:25:11.479Z,100.00
2023-05-24T23:27:40.716Z,100.00
2023-05-24T23:30:09.157Z,100.00
2023-05-24T23:32:36.804Z,100.00
2023-05-24T23:35:04.633Z,100.00
2023-05-24T23:37:32.280Z,100.00
2023-05-24T23:40:02.363Z,100.00
2023-05-24T23:42:30.044Z,100.00
2023-05-24T23:44:59.388Z,100.00
2023-05-24T23:47:27.049Z,100.00
2023-05-24T23:49:54.753Z,100.00
2023-05-24T23:52:22.396Z,100.00
2023-05-24T23:54:50.062Z,100.00
2023-05-24T23:57:20.114Z,100.00
2023-05-24T23:59:47.763Z,100.00
